map of LYVR home
LYVR - Airport
Location
City:  Vrsac, Serbia
ICAO:LYVR

Details
Type:Airport (Aerodrome, Airfield)
Use:Public/Civil, Military
Latitude:4508'49"N (45.146889)
Longitude:2118'36"E (21.309889)
Datum:WGS 1984
Elevation:276 ft (84 m)
Variation:4.90E (WMM2015 magnetic declination)
0.11 annual change
Runways:3
Longest:3280 × 72 ft (1000 × 22 m), paved

Time
Time Zone:UTC+1 (DST+2)
Local Time:

Weather
METAR:LYVR 220730Z 33008KT 9999 BKN010 BKN040 01/M00 Q1014 R01/190194 NOSIG
TAF:LYVR 220500Z 2206/2306 31010KT 9999 BKN010 TX03/2212Z TNM02/2305Z
BECMG 2207/2209 SCT010 BKN020
BECMG 2215/2217 23005KT
BECMG 2301/2303 3000 BR

Related Locations
Nearby:
Farthest:CHT: 11559 mi / 18602 km
Waitangi [Tuuta], CIT, NZ

Find:

   beyond  
but within

Other Information
Maps:
NOTAMs:
Links:
Sources:

  
flag of Serbia   

Sectional Chart

Flight Planning
at skyvector.com

Satellite Image

Google Maps Satellite view

 

Copyright © 2004-2018 Karl L. Swartz. All rights reserved.
The Great Circle Mapper name and logo are trademarks of the Great Circle Mapper.
All other trademarks mentioned herein belong to their respective owners.
Please see credits for attibutions and further copyright information.

  Follow gcmap on Facebook Follow gcmap on Twitter Follow gcmap on Google+ GCmap on LinkedIn

hCard Microformat

Geo Microformat